Flight Track Log - Related Links

Times and Time Zones

All times are in EDT time to prevent confusion due to time zone crossing. See the CSH9523 flight status page for this flight to view local times or setup timezone preferences in your user account.

Time Position Orientation Groundspeed Altitude Reporting Facility
EDT Latitude Longitude Course Direction KTS MPH feet Rate Location/Type
Sun 07:10:00 AM 30.5306 121.1142 196° South  Level Estimated
Sun 07:11:00 AM 30.4555 121.0894 196° South  Level Estimated
Sun 07:12:00 AM 30.3804 121.0646 196° South  Level Estimated
Sun 07:13:00 AM 30.3053 121.0399 196° South  Level Estimated
Sun 07:14:00 AM 30.2302 121.0152 196° South  Level Estimated
Sun 07:15:00 AM 30.1551 120.9905 196° South  Level Estimated
Sun 07:16:00 AM 30.0800 120.9659 196° South  Level Estimated
Sun 07:17:00 AM 30.0049 120.9414 196° South  Level Estimated
Sun 07:18:00 AM 29.9298 120.9168 196° South  Level Estimated
Sun 07:19:00 AM 29.8547 120.8923 196° South  Level Estimated
Sun 07:20:00 AM 29.7795 120.8679 196° South  Level Estimated
Sun 07:21:00 AM 29.7044 120.8434 196° South  Level Estimated
Sun 07:22:00 AM 29.6292 120.8190 196° South  Level Estimated
Sun 07:23:00 AM 29.5541 120.7947 196° South  Level Estimated
Sun 07:24:00 AM 29.4790 120.7704 196° South  Level Estimated
Sun 07:25:00 AM 29.4038 120.7461 196° South  Level Estimated
Sun 07:26:00 AM 29.3286 120.7218 196° South  Level Estimated
Sun 07:27:00 AM 29.2535 120.6976 196° South  Level Estimated
Sun 07:28:00 AM 29.1783 120.6735 196° South  Level Estimated
Sun 07:29:00 AM 29.1031 120.6493 196° South  Level Estimated
Sun 07:30:00 AM 29.0280 120.6252 196° South  Level Estimated
Sun 07:31:00 AM 28.9528 120.6012 196° South  Level Estimated
Sun 07:32:00 AM 28.8776 120.5771 196° South  Level Estimated
Sun 07:33:00 AM 28.8024 120.5531 196° South  Level Estimated
Sun 07:34:00 AM 28.7272 120.5292 196° South  Level Estimated
Sun 07:35:00 AM 28.6520 120.5052 196° South  Level Estimated
Sun 07:36:00 AM 28.5768 120.4813 196° South  Level Estimated
Sun 07:37:00 AM 28.5016 120.4575 196° South  Level Estimated
Sun 07:38:00 AM 28.4264 120.4336 196° South  Level Estimated
Sun 07:39:00 AM 28.3512 120.4099 196° South  Level Estimated
Sun 07:40:00 AM 28.2760 120.3861 196° South  Level Estimated
Sun 07:41:00 AM 28.2008 120.3624 196° South  Level Estimated
Sun 07:42:00 AM 28.1255 120.3387 196° South  Level Estimated
Sun 07:43:00 AM 28.0503 120.3150 196° South  Level Estimated
Sun 07:44:00 AM 27.9751 120.2914 196° South  Level Estimated
Sun 07:45:00 AM 27.8998 120.2678 195° South  Level Estimated
Sun 07:46:00 AM 27.8246 120.2442 195° South  Level Estimated
Sun 07:47:00 AM 27.7493 120.2207 195° South  Level Estimated
Sun 07:48:00 AM 27.6741 120.1972 195° South  Level Estimated
Sun 07:49:00 AM 27.5988 120.1738 195° South  Level Estimated
Sun 07:50:00 AM 27.5236 120.1503 195° South  Level Estimated
Sun 07:51:00 AM 27.4483 120.1269 195° South  Level Estimated
Sun 07:52:00 AM 27.3731 120.1036 195° South  Level Estimated
Sun 07:53:00 AM 27.2978 120.0802 195° South  Level Estimated
Sun 07:54:00 AM 27.2225 120.0569 195° South  Level Estimated
Sun 07:55:00 AM 27.1472 120.0336 195° South  Level Estimated
Sun 07:56:00 AM 27.0720 120.0104 195° South  Level Estimated
Sun 07:57:00 AM 26.9967 119.9872 195° South  Level Estimated
Sun 07:58:00 AM 26.9214 119.9640 195° South  Level Estimated
Sun 07:59:00 AM 26.8461 119.9409 195° South  Level Estimated
Sun 08:00:00 AM 26.7708 119.9177 195° South  Level Estimated
Sun 08:01:00 AM 26.6955 119.8947 195° South  Level Estimated
Sun 08:02:00 AM 26.6202 119.8716 195° South  Level Estimated
Sun 08:03:00 AM 26.5449 119.8486 195° South  Level Estimated
Sun 08:04:00 AM 26.4696 119.8256 195° South  Level Estimated
Sun 08:05:00 AM 26.3943 119.8026 195° South  Level Estimated
Sun 08:06:00 AM 26.3189 119.7797 195° South  Level Estimated
Sun 08:07:00 AM 26.2436 119.7568 195° South  Level Estimated
Sun 08:08:00 AM 26.1683 119.7339 195° South  Level Estimated
Sun 08:09:00 AM 26.0930 119.7111 195° South  Level Estimated
Sun 08:10:00 AM 26.0176 119.6882 195° South  Level Estimated
Sun 08:11:00 AM 25.9423 119.6655 195° South  Level Estimated
Sun 08:12:00 AM 25.9351 119.6633 195° South  Level Estimated
Sun 08:13:00 AM 25.9351 119.6633 North  Level Estimated

Login

Don't have an account? Register now (free) for customized features, flight alerts, and more!